createdAt,value
2019-05-06T00:02:37.592Z,99.810791
2019-05-06T00:08:00.250Z,99.993896
2019-05-06T00:13:24.118Z,99.993896
2019-05-06T00:18:45.682Z,99.993896
2019-05-06T00:24:09.307Z,99.993896
2019-05-06T00:29:31.941Z,99.993896
2019-05-06T00:34:54.794Z,99.993896
2019-05-06T00:40:18.333Z,99.993896
2019-05-06T00:45:41.040Z,99.993896
2019-05-06T00:51:04.446Z,99.993896
2019-05-06T00:56:26.320Z,99.993896
2019-05-06T01:01:49.940Z,99.993896
2019-05-06T01:07:13.999Z,99.993896
2019-05-06T01:12:35.299Z,99.993896
2019-05-06T01:17:59.896Z,99.993896
2019-05-06T01:23:23.443Z,99.993896
2019-05-06T01:28:45.238Z,99.993896
2019-05-06T01:34:07.898Z,99.993896
2019-05-06T01:39:30.542Z,99.993896
2019-05-06T01:44:53.818Z,99.993896
2019-05-06T01:50:15.931Z,99.993896
2019-05-06T01:55:39.614Z,99.993896
2019-05-06T02:01:04.016Z,99.993896
2019-05-06T02:06:25.167Z,99.993896
2019-05-06T02:11:48.307Z,99.993896
2019-05-06T02:17:11.250Z,99.993896
2019-05-06T02:22:34.562Z,99.993896
2019-05-06T02:27:56.574Z,99.993896
2019-05-06T02:33:20.309Z,99.993896
2019-05-06T02:38:47.785Z,99.993896
2019-05-06T02:44:09.984Z,99.993896
2019-05-06T02:49:29.244Z,99.993896
2019-05-06T02:54:53.597Z,99.993896
2019-05-06T03:00:15.344Z,99.993896
2019-05-06T03:05:39.043Z,99.993896
2019-05-06T03:11:03.887Z,99.993896
2019-05-06T03:16:24.837Z,99.993896
2019-05-06T03:21:48.527Z,99.993896
2019-05-06T03:27:13.963Z,99.993896
2019-05-06T03:32:38.073Z,99.993896
2019-05-06T03:37:57.479Z,99.993896
2019-05-06T03:43:22.883Z,99.993896
2019-05-06T03:48:44.142Z,99.993896
2019-05-06T03:54:05.548Z,99.993896
2019-05-06T03:59:29.155Z,99.993896
2019-05-06T04:04:53.441Z,99.993896
2019-05-06T04:10:14.472Z,99.993896
2019-05-06T04:15:38.175Z,99.993896
2019-05-06T04:21:03.701Z,99.993896
2019-05-06T04:26:24.547Z,99.993896
2019-05-06T04:31:48.252Z,99.993896
2019-05-06T04:37:10.908Z,99.993896
2019-05-06T04:42:34.381Z,99.993896
2019-05-06T04:47:56.281Z,99.993896
2019-05-06T04:53:20.047Z,99.993896
2019-05-06T04:58:43.013Z,99.993896
2019-05-06T05:04:21.670Z,99.993896
2019-05-06T05:09:29.172Z,99.993896
2019-05-06T05:14:52.094Z,99.859619
2019-05-06T05:20:14.489Z,98.614502
2019-05-06T05:25:38.811Z,97.741699
2019-05-06T05:31:03.014Z,96.862793
2019-05-06T05:36:24.249Z,95.574951
2019-05-06T05:41:47.854Z,93.87207
2019-05-06T05:47:12.328Z,92.736816
2019-05-06T05:52:34.150Z,92.999268
2019-05-06T05:57:57.805Z,92.193604
2019-05-06T06:03:22.034Z,91.40625
2019-05-06T06:08:43.293Z,89.501953
2019-05-06T06:14:05.955Z,90.289307
2019-05-06T06:19:28.669Z,89.416504
2019-05-06T06:24:52.540Z,87.786865
2019-05-06T06:30:14.045Z,85.620117
2019-05-06T06:35:37.744Z,84.857178
2019-05-06T06:41:02.525Z,83.679199
2019-05-06T06:46:23.152Z,84.405518
2019-05-06T06:51:45.873Z,84.161377
2019-05-06T06:57:12.502Z,83.233643
2019-05-06T07:02:33.423Z,82.958984
2019-05-06T07:07:56.149Z,83.129883
2019-05-06T07:13:18.849Z,81.12793
2019-05-06T07:18:43.873Z,82.873535
2019-05-06T07:24:07.559Z,79.986572
2019-05-06T07:29:30.317Z,80.157471
2019-05-06T07:34:53.295Z,77.55127
2019-05-06T07:40:15.642Z,78.399658
2019-05-06T07:45:38.342Z,76.898193
2019-05-06T07:51:03.022Z,76.898193
2019-05-06T07:56:24.886Z,77.404785
2019-05-06T08:01:48.746Z,77.368164
2019-05-06T08:07:12.574Z,75.830078
2019-05-06T08:12:34.185Z,68.817139
2019-05-06T08:17:57.875Z,68.4021
2019-05-06T08:23:22.023Z,64.904785
2019-05-06T08:28:44.425Z,62.915039
2019-05-06T08:34:05.940Z,60.882568
2019-05-06T08:39:29.343Z,59.637451
2019-05-06T08:44:53.093Z,59.918213
2019-05-06T08:50:15.396Z,58.349609
2019-05-06T08:55:38.648Z,58.758545
2019-05-06T09:01:02.796Z,59.375
2019-05-06T09:06:30.146Z,58.575439
2019-05-06T09:11:49.846Z,56.658936
2019-05-06T09:17:12.516Z,56.878662
2019-05-06T09:22:35.273Z,56.506348
2019-05-06T09:27:58.949Z,62.884521
2019-05-06T09:33:22.497Z,54.742432
2019-05-06T09:38:44.627Z,46.417236
2019-05-06T09:44:08.813Z,44.854736
2019-05-06T09:49:32.911Z,50.231934
2019-05-06T09:54:54.579Z,51.605225
2019-05-06T10:00:18.225Z,49.304199
2019-05-06T10:05:42.486Z,49.542236
2019-05-06T10:11:03.513Z,46.66748
2019-05-06T10:16:26.162Z,47.076416
2019-05-06T10:21:48.850Z,47.955322
2019-05-06T10:27:12.170Z,47.259521
2019-05-06T10:32:34.495Z,47.174072
2019-05-06T10:37:58.377Z,48.431396
2019-05-06T10:43:22.067Z,44.018555
2019-05-06T10:48:44.394Z,44.647217
2019-05-06T10:54:07.009Z,47.607422
2019-05-06T10:59:29.626Z,48.150635
2019-05-06T11:04:53.297Z,42.895508
2019-05-06T11:10:23.561Z,46.850586
2019-05-06T11:15:43.101Z,46.075439
2019-05-06T11:21:03.702Z,42.816162
2019-05-06T11:26:26.394Z,43.139648
2019-05-06T11:31:49.076Z,41.461182
2019-05-06T11:37:14.745Z,42.102051
2019-05-06T11:42:36.006Z,37.768555
2019-05-06T11:47:58.955Z,40.795898
2019-05-06T11:53:23.090Z,42.456055
2019-05-06T11:58:44.361Z,42.431641
2019-05-06T12:04:08.007Z,44.891357
2019-05-06T12:09:32.980Z,45.806885
2019-05-06T12:14:53.331Z,43.792725
2019-05-06T12:20:15.986Z,42.010498
2019-05-06T12:25:38.620Z,37.963867
2019-05-06T12:31:01.824Z,43.408203
2019-05-06T12:36:25.341Z,48.7854
2019-05-06T12:41:48.975Z,50.561523
2019-05-06T12:47:13.364Z,51.074219
2019-05-06T12:52:34.923Z,51.196289
2019-05-06T12:57:58.598Z,50.20752
2019-05-06T13:03:23.413Z,49.041748
2019-05-06T13:08:56.373Z,44.030762
2019-05-06T13:14:07.776Z,42.779541
2019-05-06T13:19:32.165Z,47.113037
2019-05-06T13:24:53.103Z,48.864746
2019-05-06T13:30:15.843Z,50.360107
2019-05-06T13:35:38.547Z,49.316406
2019-05-06T13:41:03.081Z,47.821045
2019-05-06T13:46:23.823Z,48.00415
2019-05-06T13:51:47.462Z,44.805908
2019-05-06T13:57:12.425Z,50.549316
2019-05-06T14:02:34.145Z,47.247314
2019-05-06T14:07:56.509Z,48.431396
2019-05-06T14:13:22.025Z,49.090576
2019-05-06T14:18:42.970Z,46.746826
2019-05-06T14:24:05.549Z,46.490479
2019-05-06T14:29:29.236Z,40.612793
2019-05-06T14:34:52.103Z,42.034912
2019-05-06T14:40:14.604Z,34.893799
2019-05-06T14:45:38.178Z,39.599609
2019-05-06T14:51:02.204Z,46.350098
2019-05-06T14:56:23.441Z,48.638916
2019-05-06T15:01:47.072Z,51.635742
2019-05-06T15:07:09.740Z,51.965332
2019-05-06T15:12:33.314Z,52.832031
2019-05-06T15:17:55.127Z,55.383301
2019-05-06T15:23:18.826Z,52.960205
2019-05-06T15:28:42.489Z,54.003906
2019-05-06T15:34:03.165Z,53.210449
2019-05-06T15:39:25.774Z,55.151367
2019-05-06T15:44:49.228Z,52.697754
2019-05-06T15:50:12.693Z,53.033447
2019-05-06T15:55:34.634Z,57.348633
2019-05-06T16:00:57.415Z,75.933838
2019-05-06T16:06:20.082Z,86.37085
2019-05-06T16:11:44.657Z,92.138672
2019-05-06T16:17:05.492Z,95.532227
2019-05-06T16:22:29.240Z,97.283936
2019-05-06T16:27:54.461Z,97.692871
2019-05-06T16:33:15.311Z,95.330811
2019-05-06T16:38:38.264Z,90.899658
2019-05-06T16:44:02.125Z,91.168213
2019-05-06T16:49:23.677Z,89.624023
2019-05-06T16:54:49.239Z,90.032959
2019-05-06T17:00:11.987Z,90.032959
2019-05-06T17:05:34.815Z,88.079834
2019-05-06T17:10:58.580Z,89.147949
2019-05-06T17:16:22.050Z,90.386963
2019-05-06T17:21:43.961Z,88.531494
2019-05-06T17:27:12.025Z,90.136719
2019-05-06T17:32:33.662Z,88.739014
2019-05-06T17:37:55.301Z,92.443848
2019-05-06T17:43:18.068Z,96.148682
2019-05-06T17:48:42.357Z,96.875
2019-05-06T17:54:03.432Z,96.77124
2019-05-06T17:59:27.101Z,97.021484
2019-05-06T18:04:52.999Z,98.773193
2019-05-06T18:10:13.395Z,98.254395
2019-05-06T18:15:37.043Z,99.182129
2019-05-06T18:20:59.695Z,99.432373
2019-05-06T18:26:23.065Z,99.847412
2019-05-06T18:31:45.223Z,99.951172
2019-05-06T18:37:08.898Z,99.79248
2019-05-06T18:42:32.952Z,98.406982
2019-05-06T18:47:55.337Z,95.623779
2019-05-06T18:53:19.006Z,95.41626
2019-05-06T18:58:42.855Z,95.562744
2019-05-06T19:04:04.391Z,95.562744
2019-05-06T19:09:28.851Z,96.435547
2019-05-06T19:14:52.533Z,96.740723
2019-05-06T19:20:14.211Z,98.083496
2019-05-06T19:25:37.868Z,99.060059
2019-05-06T19:31:02.872Z,99.993896
2019-05-06T19:36:23.649Z,99.993896
2019-05-06T19:41:45.965Z,99.993896
2019-05-06T19:47:08.725Z,99.993896
2019-05-06T19:52:32.578Z,99.993896
2019-05-06T19:57:54.413Z,99.993896
2019-05-06T20:03:18.311Z,99.993896
2019-05-06T20:08:42.102Z,99.993896
2019-05-06T20:14:03.763Z,99.993896
2019-05-06T20:19:30.633Z,99.993896
2019-05-06T20:24:52.029Z,99.993896
2019-05-06T20:30:13.706Z,99.993896
2019-05-06T20:35:37.129Z,99.993896
2019-05-06T20:41:00.183Z,99.993896
2019-05-06T20:46:22.875Z,99.993896
2019-05-06T20:51:45.553Z,99.993896
2019-05-06T20:57:08.220Z,99.993896
2019-05-06T21:02:32.604Z,99.993896
2019-05-06T21:07:53.690Z,99.993896
2019-05-06T21:13:28.487Z,99.993896
2019-05-06T21:18:41.922Z,99.993896
2019-05-06T21:24:03.835Z,99.993896
2019-05-06T21:29:26.607Z,99.993896
2019-05-06T21:34:49.275Z,99.993896
2019-05-06T21:40:12.345Z,99.993896
2019-05-06T21:45:34.815Z,99.993896
2019-05-06T21:50:58.511Z,99.993896
2019-05-06T21:56:22.574Z,99.993896
2019-05-06T22:01:43.894Z,99.993896
2019-05-06T22:07:07.646Z,99.993896
2019-05-06T22:12:32.171Z,99.993896
2019-05-06T22:17:54.479Z,99.993896
2019-05-06T22:23:17.507Z,99.993896
2019-05-06T22:28:40.202Z,99.993896
2019-05-06T22:34:02.903Z,99.993896
2019-05-06T22:39:25.600Z,99.993896
2019-05-06T22:44:49.452Z,99.993896
2019-05-06T22:50:13.038Z,99.993896
2019-05-06T22:55:34.914Z,99.993896
2019-05-06T23:00:58.958Z,99.993896
2019-05-06T23:06:22.008Z,99.993896
2019-05-06T23:11:44.625Z,99.993896
2019-05-06T23:17:07.371Z,99.993896
2019-05-06T23:22:31.972Z,99.993896
2019-05-06T23:27:53.104Z,99.993896
2019-05-06T23:33:16.281Z,99.993896
2019-05-06T23:38:38.985Z,99.993896
2019-05-06T23:44:02.895Z,99.993896
2019-05-06T23:49:24.688Z,99.993896
2019-05-06T23:54:48.410Z,99.993896
